Time;durP1;ratioP1;P1;durP2;ratioP2;P2;SDS_P1;SDS_P2;PMS_P1;PMS_P2;Temp;Humidity;BMP_temperature;BMP_pressure;BME280_temperature;BME280_humidity;BME280_pressure;Samples;Min_cycle;Max_cycle;Signal;HPM_P1;HPM_P2
2024/03/09 00:00:43;;;;;;;9.30;6.32;;;5.60;99.90;;;4.91;100.00;98821.44;4137331;28;20022;-69
2024/03/09 00:02:49;;;;;;;10.45;5.95;;;5.50;99.90;;;4.90;100.00;98828.47;4137042;28;20038;-69
2024/03/09 00:04:49;;;;;;;8.68;6.18;;;5.50;99.90;;;4.84;100.00;98820.47;4137156;28;20386;-69
2024/03/09 00:06:50;;;;;;;9.00;5.15;;;5.50;99.90;;;4.81;100.00;98820.81;4136971;28;20031;-69
2024/03/09 00:08:51;;;;;;;8.90;5.90;;;5.40;99.90;;;4.77;100.00;98822.13;4119583;28;20126;-69
2024/03/09 00:10:52;;;;;;;8.75;5.40;;;5.40;99.90;;;4.73;100.00;98824.25;4136886;28;20042;-69
2024/03/09 00:12:53;;;;;;;7.30;5.35;;;5.40;99.90;;;4.65;100.00;98813.00;4136966;28;20045;-69
2024/03/09 00:14:54;;;;;;;8.00;5.43;;;5.40;99.90;;;4.62;100.00;98816.78;4135683;28;20038;-69
2024/03/09 00:16:55;;;;;;;7.60;5.28;;;5.30;99.90;;;4.62;100.00;98818.56;4136963;28;20038;-69
2024/03/09 00:18:58;;;;;;;9.18;5.65;;;5.30;99.90;;;4.57;100.00;98813.03;4136920;28;20030;-69
2024/03/09 00:20:59;;;;;;;10.15;5.85;;;5.30;99.90;;;4.55;100.00;98813.19;4137035;28;20022;-69
2024/03/09 00:23:00;;;;;;;9.70;5.82;;;5.20;99.90;;;4.54;100.00;98808.94;4135598;28;20034;-69
2024/03/09 00:25:01;;;;;;;13.02;7.03;;;5.20;99.90;;;4.57;100.00;98819.03;4135479;28;20135;-69
2024/03/09 00:27:02;;;;;;;9.68;6.30;;;5.20;99.90;;;4.58;100.00;98812.03;4119771;28;20035;-69
2024/03/09 00:29:03;;;;;;;9.90;6.25;;;5.20;99.90;;;4.57;100.00;98798.16;4136462;28;20027;-69
2024/03/09 00:31:04;;;;;;;8.05;5.72;;;5.20;99.90;;;4.54;100.00;98795.88;4137903;28;20152;-69
2024/03/09 00:33:05;;;;;;;10.38;6.05;;;5.20;99.90;;;4.56;100.00;98798.34;4136841;28;20037;-69
2024/03/09 00:35:08;;;;;;;8.15;5.45;;;5.20;99.90;;;4.55;100.00;98781.84;4135666;28;20044;-69
2024/03/09 00:37:09;;;;;;;8.40;6.05;;;5.20;99.90;;;4.58;100.00;98780.69;4135405;28;20077;-69
2024/03/09 00:39:11;;;;;;;9.45;6.28;;;5.20;99.90;;;4.61;100.00;98777.75;4138926;28;20030;-69
2024/03/09 00:41:13;;;;;;;8.73;6.13;;;5.20;99.90;;;4.58;100.00;98776.28;4136502;28;20022;-69
2024/03/09 00:43:13;;;;;;;9.57;5.60;;;5.20;99.90;;;4.62;100.00;98777.59;4136391;28;20022;-69
2024/03/09 00:45:16;;;;;;;7.93;5.35;;;5.20;99.90;;;4.63;100.00;98773.19;4136745;28;20018;-69
2024/03/09 00:47:17;;;;;;;9.18;6.03;;;5.20;99.90;;;4.64;100.00;98775.63;4119046;28;20074;-69
2024/03/09 00:49:18;;;;;;;6.53;5.13;;;5.20;99.90;;;4.68;100.00;98768.28;4136345;28;20026;-69
2024/03/09 00:51:19;;;;;;;8.75;6.20;;;5.30;99.90;;;4.69;100.00;98765.50;4135273;28;20038;-69
2024/03/09 00:53:22;;;;;;;7.63;5.30;;;5.30;99.90;;;4.72;100.00;98769.59;4135260;28;20049;-69
2024/03/09 00:55:24;;;;;;;9.60;5.65;;;5.30;99.90;;;4.69;100.00;98767.31;4136092;28;20164;-69
2024/03/09 00:57:25;;;;;;;8.20;5.32;;;5.30;99.90;;;4.67;100.00;98761.41;4136082;28;20434;-69
2024/03/09 00:59:28;;;;;;;9.93;5.38;;;5.30;99.90;;;4.63;100.00;98760.16;4135757;28;20038;-69
2024/03/09 01:01:29;;;;;;;6.55;4.80;;;5.30;99.90;;;4.62;100.00;98754.09;4136148;28;20050;-69
2024/03/09 01:03:31;;;;;;;7.95;4.85;;;5.30;99.90;;;4.63;100.00;98754.94;4136199;28;20034;-69
2024/03/09 01:05:32;;;;;;;6.72;5.00;;;5.30;99.90;;;4.67;100.00;98759.63;4136503;28;20039;-69
2024/03/09 01:07:35;;;;;;;8.25;5.78;;;5.30;99.90;;;4.76;100.00;98760.44;4136451;28;20027;-69
2024/03/09 01:09:35;;;;;;;7.07;5.22;;;5.30;99.90;;;4.88;100.00;98751.25;4135997;28;20038;-69
2024/03/09 01:11:38;;;;;;;5.93;4.47;;;5.40;99.90;;;4.98;100.00;98749.25;4136058;28;20038;-69
2024/03/09 01:13:38;;;;;;;7.03;5.10;;;5.60;99.90;;;5.05;100.00;98734.53;4136171;28;20030;-69
2024/03/09 01:15:39;;;;;;;6.47;4.75;;;5.70;99.90;;;5.15;100.00;98740.38;4136259;28;20031;-69
2024/03/09 01:17:40;;;;;;;7.43;5.70;;;5.70;99.90;;;5.25;100.00;98740.97;4136087;28;20026;-69
2024/03/09 01:19:41;;;;;;;7.80;5.38;;;5.90;99.90;;;5.33;100.00;98730.47;4136171;28;20026;-69
2024/03/09 01:21:42;;;;;;;7.22;4.78;;;5.90;99.90;;;5.43;100.00;98728.47;4136220;28;20022;-69
2024/03/09 01:23:43;;;;;;;7.95;5.35;;;6.10;99.90;;;5.53;100.00;98729.03;4136183;28;20041;-69
2024/03/09 01:25:44;;;;;;;10.10;4.88;;;6.10;99.90;;;5.59;100.00;98717.88;4136012;28;20037;-69
2024/03/09 01:27:46;;;;;;;6.38;4.15;;;6.20;99.90;;;5.65;100.00;98712.94;4134711;28;20477;-69
2024/03/09 01:29:47;;;;;;;7.22;4.70;;;6.30;99.90;;;5.70;100.00;98706.22;4136245;28;20030;-69
2024/03/09 01:31:49;;;;;;;6.30;4.68;;;6.40;99.90;;;5.73;100.00;98699.81;4135787;28;20043;-69
2024/03/09 01:33:50;;;;;;;5.95;4.30;;;6.40;99.90;;;5.73;100.00;98686.75;4136052;28;20508;-69
2024/03/09 01:35:50;;;;;;;5.32;4.03;;;6.40;99.90;;;5.72;100.00;98698.19;4135976;28;20056;-69
2024/03/09 01:37:51;;;;;;;7.00;4.57;;;6.40;99.90;;;5.75;100.00;98690.00;4137300;28;20030;-69
2024/03/09 01:39:52;;;;;;;6.55;4.07;;;6.40;99.90;;;5.78;100.00;98674.78;4136209;28;20078;-69
2024/03/09 01:41:53;;;;;;;7.22;4.53;;;6.40;99.90;;;5.81;100.00;98678.81;4134771;28;20026;-69
2024/03/09 01:43:55;;;;;;;6.25;3.92;;;6.50;99.90;;;5.84;100.00;98678.47;4118541;28;20035;-69
2024/03/09 01:45:57;;;;;;;7.28;4.22;;;6.50;99.90;;;5.85;100.00;98674.88;4135699;28;20022;-69
2024/03/09 01:48:00;;;;;;;6.15;4.03;;;6.50;99.90;;;5.87;100.00;98673.75;4135865;28;20065;-69
2024/03/09 01:50:03;;;;;;;8.30;4.43;;;6.50;99.90;;;5.86;100.00;98676.53;4118592;28;20026;-69
2024/03/09 01:52:07;;;;;;;7.65;4.88;;;6.50;99.90;;;5.90;100.00;98676.00;4135371;28;20288;-69
2024/03/09 01:54:10;;;;;;;5.78;4.03;;;6.60;99.90;;;5.90;100.00;98664.72;4134634;28;20097;-69
2024/03/09 01:56:12;;;;;;;5.70;4.10;;;6.60;99.90;;;5.92;100.00;98666.16;4135655;28;20031;-69
2024/03/09 01:58:15;;;;;;;7.13;4.40;;;6.60;99.90;;;5.92;100.00;98660.94;4135816;28;20032;-69
2024/03/09 02:00:17;;;;;;;5.57;4.22;;;6.60;99.90;;;5.92;100.00;98654.88;4118576;28;20027;-69
2024/03/09 02:02:20;;;;;;;6.13;3.90;;;6.60;99.90;;;5.90;100.00;98647.22;4118828;28;20027;-69
2024/03/09 02:04:22;;;;;;;4.57;3.75;;;6.60;99.90;;;5.88;100.00;98651.84;4126497;28;20053;-69
2024/03/09 02:06:28;;;;;;;4.50;3.47;;;6.60;99.90;;;5.91;100.00;98653.28;4134332;28;20032;-69
2024/03/09 02:08:30;;;;;;;4.13;3.45;;;6.60;99.90;;;5.91;100.00;98648.03;4118187;28;20019;-69
2024/03/09 02:10:33;;;;;;;5.57;3.78;;;6.60;99.90;;;5.90;100.00;98642.00;4121123;28;20502;-69
2024/03/09 02:12:33;;;;;;;7.30;4.22;;;6.60;99.90;;;5.88;100.00;98636.13;4138894;28;20031;-69
2024/03/09 02:14:36;;;;;;;6.07;3.97;;;6.60;99.90;;;5.85;100.00;98635.63;4138864;28;20393;-69
2024/03/09 02:16:37;;;;;;;5.35;3.80;;;6.50;99.90;;;5.86;100.00;98632.03;4138614;28;20038;-69
2024/03/09 02:18:40;;;;;;;6.10;4.05;;;6.50;99.90;;;5.87;100.00;98623.22;4138835;28;20429;-69
2024/03/09 02:20:41;;;;;;;6.55;3.35;;;6.60;99.90;;;5.85;100.00;98617.31;4138824;28;20033;-69
2024/03/09 02:22:42;;;;;;;7.15;3.90;;;6.60;99.90;;;5.87;100.00;98616.19;4138762;28;20494;-69
2024/03/09 02:24:57;;;;;;;5.72;3.70;;;6.50;99.90;;;5.89;100.00;98616.00;4138171;28;20036;-69
2024/03/09 02:26:59;;;;;;;4.60;3.65;;;6.60;99.90;;;5.89;100.00;98610.75;4126680;28;20117;-69
2024/03/09 02:29:00;;;;;;;4.55;3.35;;;6.60;99.90;;;5.90;100.00;98609.78;4137587;28;20053;-69
2024/03/09 02:31:02;;;;;;;4.30;3.35;;;6.60;99.90;;;5.91;100.00;98608.78;4138429;28;20088;-69
2024/03/09 02:33:08;;;;;;;4.30;3.38;;;6.60;99.90;;;5.97;100.00;98610.69;4121589;28;20065;-69
2024/03/09 02:35:09;;;;;;;3.80;3.30;;;6.60;99.90;;;5.95;100.00;98602.19;4138730;28;20029;-69
2024/03/09 02:37:10;;;;;;;5.13;3.58;;;6.60;99.90;;;5.97;100.00;98598.41;4138569;28;20442;-69
2024/03/09 02:39:11;;;;;;;3.85;3.28;;;6.70;99.90;;;6.00;100.00;98594.66;4141782;28;20029;-69
2024/03/09 02:41:12;;;;;;;5.18;2.78;;;6.70;99.90;;;5.96;100.00;98594.19;4138346;28;20509;-69
2024/03/09 02:43:13;;;;;;;6.07;3.70;;;6.70;99.90;;;5.99;100.00;98598.25;4138350;28;20022;-69
2024/03/09 02:45:14;;;;;;;4.63;3.67;;;6.70;99.90;;;5.98;100.00;98596.59;4120916;28;20030;-69
2024/03/09 02:47:15;;;;;;;4.40;3.50;;;6.70;99.90;;;5.98;100.00;98594.00;4138283;28;20065;-69
2024/03/09 02:49:17;;;;;;;4.32;3.42;;;6.70;99.90;;;5.96;100.00;98588.94;4138280;28;20018;-69
2024/03/09 02:51:18;;;;;;;3.97;2.90;;;6.70;99.90;;;5.96;100.00;98582.91;4138207;28;20137;-69
2024/03/09 02:53:19;;;;;;;5.07;3.63;;;6.70;99.90;;;5.96;100.00;98578.47;4137224;28;20553;-69
2024/03/09 02:55:19;;;;;;;4.60;3.45;;;6.60;99.90;;;5.97;100.00;98571.44;4138055;28;20022;-69
2024/03/09 02:57:20;;;;;;;3.95;3.03;;;6.70;99.90;;;6.01;100.00;98575.31;4136838;28;20038;-69
2024/03/09 02:59:22;;;;;;;5.60;4.10;;;6.70;99.90;;;6.00;100.00;98569.25;4138208;28;20037;-69
2024/03/09 03:01:23;;;;;;;5.72;3.60;;;6.70;99.90;;;6.03;100.00;98568.91;4136899;28;20037;-69
2024/03/09 03:05:44;;;;;;;5.63;3.20;;;6.70;99.90;;;6.08;100.00;98563.97;4138304;28;20034;-69
2024/03/09 03:07:45;;;;;;;4.10;3.15;;;6.80;99.90;;;6.10;100.00;98569.00;4137569;28;20027;-69
2024/03/09 03:09:54;;;;;;;4.38;2.97;;;6.80;99.90;;;6.12;100.00;98562.59;4135911;28;20034;-69
2024/03/09 03:11:54;;;;;;;4.05;2.83;;;6.80;99.90;;;6.12;100.00;98562.59;4137705;28;20045;-69
2024/03/09 03:13:55;;;;;;;5.25;3.40;;;6.80;99.90;;;6.16;100.00;98557.00;4137952;28;20026;-69
2024/03/09 03:15:56;;;;;;;4.40;3.17;;;6.90;99.90;;;6.17;100.00;98556.00;4137909;28;20038;-69
2024/03/09 03:17:57;;;;;;;4.70;3.40;;;6.80;99.90;;;6.18;100.00;98558.47;4137777;28;20081;-69
2024/03/09 03:19:58;;;;;;;3.88;2.85;;;6.80;99.90;;;6.16;100.00;98549.94;4136281;28;20081;-69
2024/03/09 03:21:59;;;;;;;5.13;2.90;;;6.80;99.90;;;6.16;100.00;98549.94;4137891;28;20420;-69
2024/03/09 03:24:04;;;;;;;4.53;3.05;;;6.90;99.90;;;6.16;100.00;98549.94;4138208;28;20019;-69
2024/03/09 03:26:05;;;;;;;3.63;2.70;;;6.90;99.90;;;6.18;100.00;98544.56;4137662;28;20030;-69
2024/03/09 03:28:06;;;;;;;4.93;3.15;;;6.90;99.90;;;6.18;100.00;98540.13;4136421;28;20042;-69
2024/03/09 03:30:10;;;;;;;4.07;3.20;;;6.90;99.90;;;6.18;100.00;98528.84;4137371;28;20506;-69
2024/03/09 03:32:11;;;;;;;4.45;2.88;;;6.90;99.90;;;6.19;100.00;98533.88;4136526;28;20030;-69
2024/03/09 03:34:12;;;;;;;4.22;2.72;;;6.90;99.90;;;6.18;100.00;98529.66;4137704;28;20040;-70
2024/03/09 03:36:18;;;;;;;3.55;2.63;;;6.90;99.90;;;6.19;100.00;98531.28;4136327;28;20494;-69
2024/03/09 03:38:19;;;;;;;5.20;3.30;;;6.90;99.90;;;6.22;100.00;98530.91;4141924;28;20578;-69
2024/03/09 03:40:22;;;;;;;4.55;3.00;;;6.90;99.90;;;6.22;100.00;98525.66;4120008;28;20050;-69
2024/03/09 03:42:24;;;;;;;4.45;2.85;;;6.90;99.90;;;6.21;100.00;98534.53;4120193;28;20027;-69
2024/03/09 03:44:29;;;;;;;4.10;2.97;;;6.90;99.90;;;6.21;100.00;98518.00;4136298;28;20062;-69
2024/03/09 03:46:31;;;;;;;4.13;2.90;;;6.90;99.90;;;6.24;100.00;98523.69;4121076;28;20019;-69
2024/03/09 03:48:32;;;;;;;6.22;3.50;;;6.90;99.90;;;6.25;100.00;98517.44;4136832;28;20029;-69
2024/03/09 03:50:33;;;;;;;4.43;2.38;;;6.90;99.90;;;6.27;100.00;98515.47;4120100;28;20031;-69
2024/03/09 03:52:38;;;;;;;3.80;2.53;;;7.00;99.90;;;6.27;100.00;98510.25;4137625;28;20029;-69
2024/03/09 03:54:39;;;;;;;4.60;2.75;;;7.00;99.90;;;6.31;100.00;98508.06;4136101;28;20034;-69
2024/03/09 03:56:41;;;;;;;5.22;2.95;;;7.00;99.90;;;6.33;100.00;98508.69;4137135;28;20054;-69
2024/03/09 03:58:41;;;;;;;4.80;2.75;;;7.00;99.90;;;6.35;100.00;98504.91;4135993;28;20211;-69
2024/03/09 04:00:43;;;;;;;3.90;2.60;;;7.10;99.90;;;6.43;100.00;98503.97;4137339;28;20034;-69
2024/03/09 04:02:44;;;;;;;5.00;2.33;;;7.10;99.90;;;6.43;100.00;98490.88;4137189;28;20110;-69
2024/03/09 04:04:45;;;;;;;3.60;2.20;;;7.10;99.90;;;6.46;100.00;98495.75;4135928;28;20026;-69
2024/03/09 04:06:46;;;;;;;4.18;2.50;;;7.10;99.90;;;6.48;100.00;98491.94;4136984;28;20402;-69
2024/03/09 04:08:46;;;;;;;5.07;2.65;;;7.20;99.90;;;6.52;100.00;98493.19;4135854;28;20022;-69
2024/03/09 04:10:49;;;;;;;4.75;2.38;;;7.20;99.90;;;6.53;100.00;98492.22;4136936;28;20038;-69
2024/03/09 04:12:51;;;;;;;7.68;2.97;;;7.20;99.90;;;6.56;100.00;98486.59;4137101;28;20026;-69
2024/03/09 04:14:53;;;;;;;4.22;2.65;;;7.20;99.90;;;6.56;100.00;98484.00;4135608;28;20090;-69
2024/03/09 04:16:54;;;;;;;3.28;2.35;;;7.30;99.90;;;6.61;100.00;98486.84;4136449;28;20026;-69
2024/03/09 04:18:55;;;;;;;3.55;2.60;;;7.30;99.90;;;6.62;100.00;98483.25;4137077;28;20022;-69
2024/03/09 04:20:57;;;;;;;4.03;2.22;;;7.30;99.90;;;6.63;100.00;98477.00;4136804;28;20049;-69
2024/03/09 04:22:57;;;;;;;3.75;2.20;;;7.30;99.90;;;6.67;100.00;98483.50;4136780;28;20475;-69
2024/03/09 04:25:03;;;;;;;3.67;2.22;;;7.40;99.90;;;6.65;100.00;98475.03;4136739;28;20023;-69
2024/03/09 04:27:07;;;;;;;6.03;2.67;;;7.40;99.90;;;6.68;100.00;98474.66;4135765;28;20026;-69
2024/03/09 04:29:08;;;;;;;5.55;2.10;;;7.40;99.90;;;6.72;100.00;98471.66;4136696;28;20149;-69
2024/03/09 04:31:09;;;;;;;3.10;2.13;;;7.40;99.90;;;6.74;100.00;98474.88;4136459;28;20418;-69
2024/03/09 04:33:11;;;;;;;3.03;2.15;;;7.40;99.90;;;6.75;100.00;98466.03;4118603;28;20122;-69
2024/03/09 04:35:12;;;;;;;3.97;1.98;;;7.40;99.90;;;6.77;100.00;98467.47;4144478;28;20033;-69
2024/03/09 04:37:12;;;;;;;5.15;2.67;;;7.50;99.90;;;6.80;100.00;98471.53;4135282;28;20046;-69
2024/03/09 04:39:13;;;;;;;3.50;2.00;;;7.50;99.90;;;6.78;100.00;98460.44;4126067;28;20154;-69
2024/03/09 04:41:14;;;;;;;4.75;2.03;;;7.50;99.90;;;6.80;100.00;98461.84;4136488;28;20038;-69
2024/03/09 04:43:16;;;;;;;4.45;2.30;;;7.50;99.90;;;6.82;100.00;98459.03;4135299;28;20374;-69
2024/03/09 04:45:19;;;;;;;4.57;2.28;;;7.50;99.90;;;6.83;100.00;98466.72;4136550;28;20030;-69
2024/03/09 04:47:20;;;;;;;4.95;2.15;;;7.50;99.90;;;6.83;100.00;98455.44;4136416;28;20057;-69
2024/03/09 04:49:21;;;;;;;3.72;2.40;;;7.50;99.90;;;6.86;100.00;98449.81;4136462;28;20053;-69
2024/03/09 04:51:23;;;;;;;3.05;1.85;;;7.50;99.90;;;6.85;100.00;98453.41;4136683;28;20026;-69
2024/03/09 04:53:25;;;;;;;3.65;2.25;;;7.50;99.90;;;6.83;100.00;98456.25;4136491;28;20409;-69
2024/03/09 04:55:29;;;;;;;4.45;1.92;;;7.50;99.90;;;6.86;100.00;98455.06;4136305;28;20038;-69
2024/03/09 04:57:38;;;;;;;4.45;2.20;;;7.60;99.90;;;6.87;100.00;98446.19;4136732;28;20405;-69
2024/03/09 04:59:39;;;;;;;3.30;2.00;;;7.60;99.90;;;6.88;100.00;98437.31;4136430;28;20062;-69
2024/03/09 05:01:40;;;;;;;2.45;1.92;;;7.60;99.90;;;6.88;100.00;98437.31;4136170;28;20050;-69
2024/03/09 05:03:40;;;;;;;3.88;2.03;;;7.60;99.90;;;6.90;100.00;98445.81;4136167;28;20023;-69
2024/03/09 05:05:41;;;;;;;3.55;1.98;;;7.60;99.90;;;6.90;100.00;98435.34;4136383;28;20490;-69
2024/03/09 05:07:51;;;;;;;4.15;1.85;;;7.60;99.90;;;6.94;100.00;98441.81;4136166;28;20037;-69
2024/03/09 05:09:51;;;;;;;4.88;2.10;;;7.60;99.90;;;6.98;100.00;98443.06;4134869;28;20101;-69
2024/03/09 05:11:53;;;;;;;3.72;2.20;;;7.70;99.90;;;7.03;100.00;98436.25;4118438;28;20565;-69
2024/03/09 05:13:56;;;;;;;3.67;1.70;;;7.70;99.90;;;7.01;100.00;98433.00;4118822;28;20037;-69
2024/03/09 05:15:57;;;;;;;5.53;1.77;;;7.70;99.90;;;7.05;100.00;98438.66;4135199;28;20540;-69
2024/03/09 05:18:00;;;;;;;4.13;1.80;;;7.70;99.90;;;7.02;100.00;98424.13;4136072;28;20027;-69
2024/03/09 05:20:11;;;;;;;2.42;1.52;;;7.70;99.90;;;7.05;100.00;98438.66;4135991;28;20022;-69
2024/03/09 05:22:13;;;;;;;3.25;1.70;;;7.70;99.90;;;7.10;100.00;98425.81;4136161;28;20027;-69
2024/03/09 05:24:15;;;;;;;3.80;1.60;;;7.80;99.90;;;7.08;100.00;98425.19;4134835;28;20073;-69
2024/03/09 05:26:18;;;;;;;6.60;1.50;;;7.80;99.90;;;7.11;100.00;98420.38;4118427;28;20057;-69
2024/03/09 05:28:20;;;;;;;2.20;1.20;;;7.80;99.90;;;7.09;100.00;98406.66;4136378;28;20053;-69
2024/03/09 05:30:27;;;;;;;3.08;1.60;;;7.80;99.90;;;7.11;100.00;98407.25;4135916;28;20038;-69
2024/03/09 05:32:28;;;;;;;2.83;1.10;;;7.80;99.90;;;7.13;100.00;98405.28;4119481;28;20033;-69
2024/03/09 05:34:29;;;;;;;2.85;0.90;;;7.80;99.90;;;7.09;100.00;98393.53;4135891;28;20467;-69
2024/03/09 05:36:30;;;;;;;3.85;1.25;;;7.80;99.90;;;7.09;100.00;98387.50;4134882;28;20026;-69
2024/03/09 05:38:31;;;;;;;3.13;1.25;;;7.80;99.90;;;7.14;100.00;98387.72;4143208;28;20492;-69
2024/03/09 05:40:32;;;;;;;2.55;0.88;;;7.80;99.90;;;7.09;100.00;98384.88;4135779;28;20030;-69
2024/03/09 05:42:33;;;;;;;2.88;0.90;;;7.80;99.90;;;7.08;100.00;98378.81;4135774;28;20034;-69
2024/03/09 05:44:33;;;;;;;1.88;0.70;;;7.80;99.90;;;7.09;100.00;98377.81;4138659;28;20023;-69
2024/03/09 05:46:34;;;;;;;3.42;0.70;;;7.80;99.90;;;7.08;100.00;98365.69;4139257;28;20037;-69
2024/03/09 05:48:36;;;;;;;2.15;1.17;;;7.80;99.90;;;7.07;100.00;98363.28;4138031;28;20092;-69
2024/03/09 05:50:37;;;;;;;3.28;0.90;;;7.80;99.90;;;7.11;100.00;98365.31;4121778;28;20474;-69
2024/03/09 05:52:40;;;;;;;2.28;1.00;;;7.80;99.90;;;7.08;100.00;98352.59;4139286;28;20101;-69
2024/03/09 05:54:41;;;;;;;2.83;1.10;;;7.80;99.90;;;7.14;100.00;98364.94;4139034;28;20046;-69
2024/03/09 05:56:42;;;;;;;2.08;0.70;;;7.80;99.90;;;7.13;100.00;98352.84;4139048;28;20413;-69
2024/03/09 05:58:43;;;;;;;3.40;1.48;;;7.80;99.90;;;7.14;100.00;98343.16;4137714;28;20049;-69
2024/03/09 06:00:44;;;;;;;3.42;1.02;;;7.80;99.90;;;7.14;100.00;98343.16;4121995;28;20105;-69
2024/03/09 06:02:47;;;;;;;2.22;0.82;;;7.80;99.90;;;7.14;100.00;98343.16;4121673;28;20026;-69
2024/03/09 06:04:48;;;;;;;1.88;1.23;;;7.80;99.90;;;7.12;100.00;98334.69;4121789;28;20031;-69
2024/03/09 06:06:49;;;;;;;4.88;1.25;;;7.80;99.90;;;7.15;100.00;98336.91;4121718;28;20035;-69
2024/03/09 06:08:50;;;;;;;1.58;0.80;;;7.80;99.90;;;7.16;100.00;98341.16;4139017;28;20031;-69
2024/03/09 06:10:53;;;;;;;2.25;0.90;;;7.80;99.90;;;7.16;100.00;98335.94;4138497;28;20026;-69
2024/03/09 06:12:54;;;;;;;4.32;1.10;;;7.80;99.90;;;7.15;100.00;98332.47;4138913;28;20057;-69
2024/03/09 06:14:55;;;;;;;3.38;1.50;;;7.80;99.90;;;7.18;100.00;98328.66;4138753;28;20035;-69
2024/03/09 06:16:57;;;;;;;1.58;1.10;;;7.90;99.90;;;7.17;100.00;98316.53;4139004;28;20027;-69
2024/03/09 06:18:58;;;;;;;3.03;1.10;;;7.80;99.90;;;7.18;100.00;98320.78;4138886;28;20033;-69
2024/03/09 06:20:58;;;;;;;4.22;1.15;;;7.80;99.90;;;7.18;100.00;98312.94;4138738;28;20030;-69
2024/03/09 06:23:00;;;;;;;3.53;1.20;;;7.80;99.90;;;7.17;100.00;98312.13;4138605;28;20026;-69
2024/03/09 06:25:01;;;;;;;4.47;1.00;;;7.90;99.90;;;7.20;100.00;98316.16;4138619;28;20018;-69
2024/03/09 06:27:03;;;;;;;4.05;1.10;;;7.90;99.90;;;7.21;100.00;98312.56;4137574;28;20478;-69
2024/03/09 06:29:04;;;;;;;2.40;1.25;;;7.90;99.90;;;7.22;100.00;98307.13;4138723;28;20030;-69
2024/03/09 06:31:06;;;;;;;3.63;1.05;;;7.90;99.90;;;7.22;100.00;98314.19;4120889;28;20054;-69
2024/03/09 06:33:08;;;;;;;2.47;1.20;;;7.90;99.90;;;7.18;100.00;98300.63;4138704;28;20030;-69
2024/03/09 06:35:08;;;;;;;2.28;1.10;;;7.90;99.90;;;7.20;100.00;98301.25;4137314;28;20030;-69
2024/03/09 06:37:13;;;;;;;3.28;1.30;;;7.90;99.90;;;7.19;100.00;98296.22;4138098;28;20402;-69
2024/03/09 06:39:14;;;;;;;3.78;1.48;;;7.90;99.90;;;7.22;100.00;98298.44;4125894;28;20030;-69
2024/03/09 06:41:15;;;;;;;3.65;1.63;;;7.90;99.90;;;7.19;100.00;98290.97;4138444;28;20082;-69
2024/03/09 06:43:17;;;;;;;2.45;1.10;;;7.90;99.90;;;7.19;100.00;98298.84;4137295;28;20057;-69
2024/03/09 06:45:18;;;;;;;3.38;1.00;;;7.90;99.90;;;7.23;100.00;98300.84;4137209;28;20022;-69
2024/03/09 06:47:19;;;;;;;3.25;1.33;;;7.90;99.90;;;7.22;100.00;98293.19;4138226;28;20067;-69
2024/03/09 06:49:21;;;;;;;1.77;1.20;;;7.90;99.90;;;7.26;100.00;98278.69;4138333;28;20038;-69
2024/03/09 06:51:22;;;;;;;2.80;1.48;;;7.90;99.90;;;7.29;100.00;98278.28;4137331;28;20037;-69
2024/03/09 06:53:25;;;;;;;1.58;0.82;;;7.90;99.90;;;7.30;100.00;98282.53;4138431;28;20532;-69
2024/03/09 06:55:26;;;;;;;1.90;1.02;;;7.90;99.90;;;7.31;100.00;98281.53;4137167;28;20054;-69
2024/03/09 06:57:27;;;;;;;2.63;1.60;;;7.90;99.90;;;7.33;100.00;98276.91;4137371;28;20034;-69
2024/03/09 06:59:27;;;;;;;1.75;0.90;;;7.90;99.90;;;7.33;100.00;98274.28;4138212;28;20026;-69
2024/03/09 07:01:30;;;;;;;4.35;1.27;;;8.00;99.90;;;7.35;100.00;98263.63;4138182;28;20022;-69
2024/03/09 07:03:30;;;;;;;5.35;0.90;;;8.00;99.90;;;7.35;100.00;98261.78;4138052;28;20023;-69
2024/03/09 07:05:34;;;;;;;3.65;1.75;;;8.00;99.90;;;7.36;100.00;98263.41;4138379;28;20085;-69
2024/03/09 07:07:41;;;;;;;1.90;0.60;;;8.00;99.90;;;7.36;100.00;98263.41;4138199;28;20030;-69
2024/03/09 07:09:44;;;;;;;2.25;1.10;;;8.00;99.90;;;7.35;100.00;98264.41;4137827;28;20105;-69
2024/03/09 07:11:44;;;;;;;1.30;0.63;;;8.00;99.90;;;7.35;100.00;98264.41;4137865;28;20026;-69
2024/03/09 07:13:45;;;;;;;2.20;0.70;;;8.00;99.90;;;7.34;100.00;98265.44;4137494;28;20489;-69
2024/03/09 07:15:47;;;;;;;3.30;0.70;;;8.00;99.90;;;7.34;100.00;98267.22;4136878;28;20058;-69
2024/03/09 07:17:50;;;;;;;0.70;0.50;;;8.00;99.90;;;7.36;100.00;98265.22;4137925;28;20091;-69
2024/03/09 07:19:50;;;;;;;3.03;0.80;;;8.00;99.90;;;7.37;100.00;98269.47;4136401;28;20030;-69
2024/03/09 07:21:51;;;;;;;1.98;0.60;;;8.00;99.90;;;7.36;100.00;98259.97;4137977;28;20026;-69
2024/03/09 07:23:52;;;;;;;2.28;0.65;;;8.00;99.90;;;7.40;100.00;98269.06;4137683;28;20034;-69
2024/03/09 07:25:53;;;;;;;1.70;0.60;;;8.00;99.90;;;7.37;100.00;98262.41;4137664;28;20023;-69
2024/03/09 07:27:57;;;;;;;1.55;1.10;;;8.00;99.90;;;7.37;100.00;98270.28;4137576;28;20033;-69
2024/03/09 07:29:58;;;;;;;1.30;0.57;;;8.00;99.90;;;7.36;100.00;98260.78;4136360;28;20078;-69
2024/03/09 07:31:59;;;;;;;1.17;0.77;;;8.00;99.90;;;7.40;100.00;98263.81;4137431;28;20042;-69
2024/03/09 07:34:00;;;;;;;1.15;0.70;;;8.00;99.90;;;7.41;100.00;98266.25;4137740;28;20027;-69
2024/03/09 07:36:01;;;;;;;2.58;0.75;;;8.00;99.90;;;7.43;100.00;98260.81;4137616;28;20113;-69
2024/03/09 07:38:03;;;;;;;1.63;0.70;;;8.00;99.90;;;7.42;100.00;98265.25;4142392;28;20021;-69
2024/03/09 07:40:06;;;;;;;1.25;0.50;;;8.10;99.90;;;7.45;100.00;98267.47;4141921;28;20026;-69
2024/03/09 07:42:09;;;;;;;1.48;0.70;;;8.10;99.90;;;7.47;100.00;98262.84;4137682;28;20029;-69
2024/03/09 07:44:12;;;;;;;2.33;1.02;;;8.10;99.90;;;7.50;100.00;98262.44;4136048;28;20030;-69
2024/03/09 07:46:13;;;;;;;3.63;1.02;;;8.10;99.90;;;7.49;100.00;98268.72;4137593;28;20033;-69
2024/03/09 07:48:14;;;;;;;3.60;1.02;;;8.10;99.90;;;7.52;100.00;98275.38;4137191;28;20042;-69
2024/03/09 07:50:16;;;;;;;2.60;0.68;;;8.10;99.90;;;7.52;100.00;98270.13;4121565;28;20050;-69
2024/03/09 07:52:18;;;;;;;1.02;0.68;;;8.20;99.90;;;7.56;100.00;98264.28;4137290;28;20397;-68
2024/03/09 07:54:19;;;;;;;1.40;0.73;;;8.20;99.90;;;7.63;100.00;98269.53;4135878;28;20026;-69
2024/03/09 07:56:21;;;;;;;4.65;0.82;;;8.20;99.90;;;7.64;100.00;98271.19;4137363;28;20478;-68
2024/03/09 07:58:21;;;;;;;1.10;0.70;;;8.30;99.90;;;7.68;100.00;98272.38;4137374;28;20034;-68
2024/03/09 08:00:27;;;;;;;2.15;0.90;;;8.30;99.90;;;7.66;100.00;98272.59;4137099;28;20508;-69
2024/03/09 08:02:27;;;;;;;5.63;0.90;;;8.30;99.90;;;7.70;100.00;98267.75;4135896;28;20025;-68
2024/03/09 08:04:28;;;;;;;1.75;0.65;;;8.30;99.90;;;7.71;100.00;98264.13;4137087;28;20038;-68
2024/03/09 08:06:29;;;;;;;1.85;1.00;;;8.30;99.90;;;7.71;100.00;98262.31;4136458;28;20022;-68
2024/03/09 08:08:30;;;;;;;1.08;0.68;;;8.30;99.90;;;7.74;100.00;98277.66;4136590;28;20033;-68
2024/03/09 08:10:31;;;;;;;3.63;0.90;;;8.40;99.90;;;7.73;100.00;98275.25;4135487;28;20022;-68
2024/03/09 08:12:35;;;;;;;3.38;1.27;;;8.40;99.90;;;7.72;100.00;98263.13;4119752;28;20019;-69
2024/03/09 08:14:36;;;;;;;4.22;1.23;;;8.40;99.90;;;7.72;100.00;98268.38;4137012;28;20025;-68
2024/03/09 08:16:39;;;;;;;1.73;0.88;;;8.40;99.90;;;7.77;100.00;98274.63;4136742;28;20465;-69
2024/03/09 08:18:40;;;;;;;2.25;0.90;;;8.40;99.90;;;7.75;100.00;98276.66;4137000;28;20022;-68
2024/03/09 08:20:41;;;;;;;2.60;0.77;;;8.40;99.90;;;7.79;100.00;98264.72;4144699;28;20037;-69
2024/03/09 08:22:45;;;;;;;1.67;0.90;;;8.40;99.90;;;7.85;100.00;98267.59;4135757;28;20032;-69
2024/03/09 08:24:45;;;;;;;1.77;0.82;;;8.40;99.90;;;7.84;100.00;98279.91;4135579;28;20023;-69
2024/03/09 08:26:46;;;;;;;2.22;1.00;;;8.50;99.90;;;7.84;100.00;98287.78;4135750;28;20038;-69
2024/03/09 08:28:47;;;;;;;2.17;0.70;;;8.50;99.90;;;7.84;100.00;98265.97;4152477;28;20026;-68
2024/03/09 08:30:48;;;;;;;2.38;0.63;;;8.50;99.90;;;7.84;100.00;98269.41;4136652;28;20050;-69
2024/03/09 08:32:53;;;;;;;1.02;0.60;;;8.50;99.90;;;7.88;100.00;98272.44;4136540;28;20026;-69
2024/03/09 08:34:54;;;;;;;1.65;0.68;;;8.50;99.90;;;7.87;100.00;98266.38;4135501;28;20058;-68
2024/03/09 08:36:55;;;;;;;2.97;1.00;;;8.50;99.90;;;7.92;100.00;98265.78;4136594;28;20042;-68
2024/03/09 08:38:57;;;;;;;2.80;0.90;;;8.50;99.90;;;7.94;100.00;98263.78;4138228;28;20026;-69